sensor_id;sensor_type;location;lat;lon;timestamp;P1;durP1;ratioP1;P2;durP2;ratioP2
9874;SDS011;4976;46.786;7.632;2023-02-18T05:44:56;1.20;;;1.10;;
9874;SDS011;4976;46.786;7.632;2023-02-18T05:50:53;3.80;;;1.03;;
9874;SDS011;4976;46.786;7.632;2023-02-18T05:53:48;2.43;;;1.30;;
9874;SDS011;4976;46.786;7.632;2023-02-18T05:56:53;1.80;;;1.60;;
9874;SDS011;4976;46.786;7.632;2023-02-18T05:59:57;2.33;;;1.40;;
9874;SDS011;4976;46.786;7.632;2023-02-18T06:03:08;2.17;;;1.50;;
9874;SDS011;4976;46.786;7.632;2023-02-18T06:05:35;2.00;;;1.70;;
9874;SDS011;4976;46.786;7.632;2023-02-18T06:08:05;2.63;;;1.63;;
9874;SDS011;4976;46.786;7.632;2023-02-18T06:10:34;1.50;;;1.33;;
9874;SDS011;4976;46.786;7.632;2023-02-18T06:13:01;1.67;;;1.20;;
9874;SDS011;4976;46.786;7.632;2023-02-18T06:15:32;1.17;;;1.00;;
9874;SDS011;4976;46.786;7.632;2023-02-18T06:18:02;3.63;;;1.60;;
9874;SDS011;4976;46.786;7.632;2023-02-18T06:20:29;2.43;;;1.63;;
9874;SDS011;4976;46.786;7.632;2023-02-18T06:22:56;4.80;;;1.60;;
9874;SDS011;4976;46.786;7.632;2023-02-18T06:25:24;3.50;;;1.80;;
9874;SDS011;4976;46.786;7.632;2023-02-18T06:27:51;2.20;;;2.00;;
9874;SDS011;4976;46.786;7.632;2023-02-18T06:30:19;3.57;;;1.70;;
9874;SDS011;4976;46.786;7.632;2023-02-18T06:32:48;2.33;;;1.93;;
9874;SDS011;4976;46.786;7.632;2023-02-18T06:35:18;2.20;;;1.53;;
9874;SDS011;4976;46.786;7.632;2023-02-18T06:37:57;6.37;;;1.60;;
9874;SDS011;4976;46.786;7.632;2023-02-18T06:47:29;2.87;;;1.53;;
9874;SDS011;4976;46.786;7.632;2023-02-18T07:03:09;4.03;;;1.80;;
9874;SDS011;4976;46.786;7.632;2023-02-18T07:06:01;3.50;;;1.90;;
9874;SDS011;4976;46.786;7.632;2023-02-18T07:11:28;2.87;;;1.80;;
9874;SDS011;4976;46.786;7.632;2023-02-18T07:14:12;2.17;;;1.97;;
9874;SDS011;4976;46.786;7.632;2023-02-18T07:17:17;1.70;;;1.50;;
9874;SDS011;4976;46.786;7.632;2023-02-18T07:20:05;1.80;;;1.70;;
9874;SDS011;4976;46.786;7.632;2023-02-18T07:23:01;4.53;;;2.60;;
9874;SDS011;4976;46.786;7.632;2023-02-18T07:29:25;2.83;;;2.20;;
9874;SDS011;4976;46.786;7.632;2023-02-18T07:33:03;3.23;;;2.50;;
9874;SDS011;4976;46.786;7.632;2023-02-18T17:22:56;4.33;;;2.40;;
9874;SDS011;4976;46.786;7.632;2023-02-18T17:25:28;3.80;;;1.70;;
9874;SDS011;4976;46.786;7.632;2023-02-18T17:27:59;1.97;;;1.63;;
9874;SDS011;4976;46.786;7.632;2023-02-18T17:30:28;1.97;;;1.83;;
9874;SDS011;4976;46.786;7.632;2023-02-18T17:32:56;3.23;;;2.10;;
9874;SDS011;4976;46.786;7.632;2023-02-18T17:35:24;2.40;;;2.20;;
9874;SDS011;4976;46.786;7.632;2023-02-18T17:38:00;2.93;;;2.30;;
9874;SDS011;4976;46.786;7.632;2023-02-18T17:40:31;4.57;;;2.10;;
9874;SDS011;4976;46.786;7.632;2023-02-18T17:43:05;2.43;;;2.10;;
9874;SDS011;4976;46.786;7.632;2023-02-18T17:45:38;3.17;;;2.40;;
9874;SDS011;4976;46.786;7.632;2023-02-18T17:48:13;2.13;;;1.93;;
9874;SDS011;4976;46.786;7.632;2023-02-18T17:50:40;1.93;;;1.60;;
9874;SDS011;4976;46.786;7.632;2023-02-18T17:53:14;3.40;;;2.33;;
9874;SDS011;4976;46.786;7.632;2023-02-18T17:55:43;4.47;;;2.67;;
9874;SDS011;4976;46.786;7.632;2023-02-18T17:58:11;3.40;;;2.97;;
9874;SDS011;4976;46.786;7.632;2023-02-18T18:00:43;3.07;;;2.50;;
9874;SDS011;4976;46.786;7.632;2023-02-18T18:03:12;3.37;;;2.33;;
9874;SDS011;4976;46.786;7.632;2023-02-18T18:05:40;2.47;;;2.20;;
9874;SDS011;4976;46.786;7.632;2023-02-18T18:08:09;2.73;;;2.47;;
9874;SDS011;4976;46.786;7.632;2023-02-18T18:10:38;3.87;;;2.70;;
9874;SDS011;4976;46.786;7.632;2023-02-18T18:13:13;2.63;;;2.03;;
9874;SDS011;4976;46.786;7.632;2023-02-18T18:15:44;3.10;;;2.70;;
9874;SDS011;4976;46.786;7.632;2023-02-18T18:18:11;2.97;;;2.30;;
9874;SDS011;4976;46.786;7.632;2023-02-18T18:20:40;3.60;;;2.60;;
9874;SDS011;4976;46.786;7.632;2023-02-18T18:23:14;2.37;;;2.03;;
9874;SDS011;4976;46.786;7.632;2023-02-18T18:25:44;3.07;;;2.20;;
9874;SDS011;4976;46.786;7.632;2023-02-18T18:28:15;3.50;;;2.30;;
9874;SDS011;4976;46.786;7.632;2023-02-18T18:30:44;5.17;;;3.00;;
9874;SDS011;4976;46.786;7.632;2023-02-18T18:33:14;2.60;;;2.37;;
9874;SDS011;4976;46.786;7.632;2023-02-18T18:35:43;3.83;;;2.40;;
9874;SDS011;4976;46.786;7.632;2023-02-18T18:38:11;3.03;;;2.73;;
9874;SDS011;4976;46.786;7.632;2023-02-18T18:40:39;4.30;;;2.60;;
9874;SDS011;4976;46.786;7.632;2023-02-18T18:43:09;4.63;;;3.37;;
9874;SDS011;4976;46.786;7.632;2023-02-18T18:45:43;5.07;;;3.00;;
9874;SDS011;4976;46.786;7.632;2023-02-18T18:48:10;4.97;;;3.20;;
9874;SDS011;4976;46.786;7.632;2023-02-18T18:50:37;2.83;;;2.53;;
9874;SDS011;4976;46.786;7.632;2023-02-18T18:53:06;5.63;;;2.87;;
9874;SDS011;4976;46.786;7.632;2023-02-18T18:55:39;4.10;;;2.73;;
9874;SDS011;4976;46.786;7.632;2023-02-18T18:58:07;3.93;;;3.00;;
9874;SDS011;4976;46.786;7.632;2023-02-18T19:00:35;3.57;;;2.37;;
9874;SDS011;4976;46.786;7.632;2023-02-18T19:03:04;3.90;;;2.53;;
9874;SDS011;4976;46.786;7.632;2023-02-18T19:05:33;3.03;;;2.33;;
9874;SDS011;4976;46.786;7.632;2023-02-18T19:08:02;4.30;;;3.03;;
9874;SDS011;4976;46.786;7.632;2023-02-18T19:10:31;4.10;;;3.13;;
9874;SDS011;4976;46.786;7.632;2023-02-18T19:13:00;10.63;;;6.70;;
9874;SDS011;4976;46.786;7.632;2023-02-18T19:15:30;5.00;;;3.63;;
9874;SDS011;4976;46.786;7.632;2023-02-18T19:17:57;3.90;;;2.70;;
9874;SDS011;4976;46.786;7.632;2023-02-18T19:20:28;4.47;;;2.87;;
9874;SDS011;4976;46.786;7.632;2023-02-18T19:22:56;5.63;;;3.23;;
9874;SDS011;4976;46.786;7.632;2023-02-18T19:25:24;3.50;;;2.97;;
9874;SDS011;4976;46.786;7.632;2023-02-18T19:27:51;4.13;;;3.07;;
9874;SDS011;4976;46.786;7.632;2023-02-18T19:30:19;4.90;;;3.10;;
9874;SDS011;4976;46.786;7.632;2023-02-18T19:32:49;6.30;;;3.63;;
9874;SDS011;4976;46.786;7.632;2023-02-18T19:35:18;4.17;;;3.30;;
9874;SDS011;4976;46.786;7.632;2023-02-18T19:37:45;6.43;;;4.40;;
9874;SDS011;4976;46.786;7.632;2023-02-18T19:40:15;5.47;;;4.10;;
9874;SDS011;4976;46.786;7.632;2023-02-18T19:42:43;5.57;;;4.47;;
9874;SDS011;4976;46.786;7.632;2023-02-18T19:45:11;5.87;;;3.63;;
9874;SDS011;4976;46.786;7.632;2023-02-18T19:47:42;5.93;;;3.60;;
9874;SDS011;4976;46.786;7.632;2023-02-18T19:50:19;4.07;;;3.27;;
9874;SDS011;4976;46.786;7.632;2023-02-18T19:52:46;3.87;;;3.07;;
9874;SDS011;4976;46.786;7.632;2023-02-18T19:55:16;4.10;;;3.50;;
9874;SDS011;4976;46.786;7.632;2023-02-18T19:57:43;3.77;;;2.77;;
9874;SDS011;4976;46.786;7.632;2023-02-18T20:00:12;4.67;;;2.77;;
9874;SDS011;4976;46.786;7.632;2023-02-18T20:02:41;4.03;;;2.80;;
9874;SDS011;4976;46.786;7.632;2023-02-18T20:05:09;3.20;;;2.53;;
9874;SDS011;4976;46.786;7.632;2023-02-18T20:07:41;2.97;;;2.67;;
9874;SDS011;4976;46.786;7.632;2023-02-18T20:10:11;3.97;;;3.07;;
9874;SDS011;4976;46.786;7.632;2023-02-18T20:12:44;2.97;;;2.63;;
9874;SDS011;4976;46.786;7.632;2023-02-18T20:15:11;7.23;;;2.70;;
9874;SDS011;4976;46.786;7.632;2023-02-18T20:17:38;3.37;;;2.73;;
9874;SDS011;4976;46.786;7.632;2023-02-18T20:20:06;3.60;;;2.50;;
9874;SDS011;4976;46.786;7.632;2023-02-18T20:22:33;3.47;;;2.30;;
9874;SDS011;4976;46.786;7.632;2023-02-18T20:25:02;6.00;;;3.00;;
9874;SDS011;4976;46.786;7.632;2023-02-18T20:27:30;3.80;;;2.93;;
9874;SDS011;4976;46.786;7.632;2023-02-18T20:29:58;4.63;;;3.40;;
9874;SDS011;4976;46.786;7.632;2023-02-18T20:32:25;5.67;;;2.97;;
9874;SDS011;4976;46.786;7.632;2023-02-18T20:34:52;4.77;;;3.40;;
9874;SDS011;4976;46.786;7.632;2023-02-18T20:37:21;4.63;;;3.30;;
9874;SDS011;4976;46.786;7.632;2023-02-18T20:39:48;3.87;;;2.90;;
9874;SDS011;4976;46.786;7.632;2023-02-18T20:42:17;3.80;;;3.40;;
9874;SDS011;4976;46.786;7.632;2023-02-18T20:44:44;3.70;;;2.57;;
9874;SDS011;4976;46.786;7.632;2023-02-18T20:47:13;3.77;;;3.40;;
9874;SDS011;4976;46.786;7.632;2023-02-18T20:49:40;4.53;;;2.90;;
9874;SDS011;4976;46.786;7.632;2023-02-18T20:52:08;4.43;;;2.47;;
9874;SDS011;4976;46.786;7.632;2023-02-18T20:54:35;4.93;;;3.10;;
9874;SDS011;4976;46.786;7.632;2023-02-18T20:57:03;4.23;;;3.20;;
9874;SDS011;4976;46.786;7.632;2023-02-18T20:59:31;5.10;;;3.10;;
9874;SDS011;4976;46.786;7.632;2023-02-18T21:01:59;4.30;;;3.07;;
9874;SDS011;4976;46.786;7.632;2023-02-18T21:04:27;3.83;;;2.70;;
9874;SDS011;4976;46.786;7.632;2023-02-18T21:06:57;4.60;;;3.20;;
9874;SDS011;4976;46.786;7.632;2023-02-18T21:09:24;5.03;;;3.20;;
9874;SDS011;4976;46.786;7.632;2023-02-18T21:11:52;2.87;;;2.33;;
9874;SDS011;4976;46.786;7.632;2023-02-18T21:14:19;4.43;;;2.73;;
9874;SDS011;4976;46.786;7.632;2023-02-18T21:16:50;3.03;;;2.50;;
9874;SDS011;4976;46.786;7.632;2023-02-18T21:19:17;3.87;;;2.37;;
9874;SDS011;4976;46.786;7.632;2023-02-18T21:21:46;3.20;;;2.53;;
9874;SDS011;4976;46.786;7.632;2023-02-18T21:24:13;4.40;;;3.43;;
9874;SDS011;4976;46.786;7.632;2023-02-18T21:26:40;4.93;;;2.60;;
9874;SDS011;4976;46.786;7.632;2023-02-18T21:29:07;4.13;;;2.90;;
9874;SDS011;4976;46.786;7.632;2023-02-18T21:31:35;5.10;;;2.57;;
9874;SDS011;4976;46.786;7.632;2023-02-18T21:34:06;4.80;;;2.60;;
9874;SDS011;4976;46.786;7.632;2023-02-18T21:36:36;4.50;;;2.90;;
9874;SDS011;4976;46.786;7.632;2023-02-18T21:39:04;3.77;;;2.87;;
9874;SDS011;4976;46.786;7.632;2023-02-18T21:41:33;3.17;;;2.23;;
9874;SDS011;4976;46.786;7.632;2023-02-18T21:44:01;5.60;;;2.60;;
9874;SDS011;4976;46.786;7.632;2023-02-18T21:46:29;7.40;;;3.27;;
9874;SDS011;4976;46.786;7.632;2023-02-18T21:48:58;5.67;;;2.67;;
9874;SDS011;4976;46.786;7.632;2023-02-18T21:51:29;4.07;;;2.60;;
9874;SDS011;4976;46.786;7.632;2023-02-18T21:54:15;2.50;;;2.30;;
9874;SDS011;4976;46.786;7.632;2023-02-18T21:56:42;2.87;;;2.53;;
9874;SDS011;4976;46.786;7.632;2023-02-18T21:59:10;4.93;;;2.50;;
9874;SDS011;4976;46.786;7.632;2023-02-18T22:01:37;3.37;;;2.50;;
9874;SDS011;4976;46.786;7.632;2023-02-18T22:04:05;4.33;;;2.43;;
9874;SDS011;4976;46.786;7.632;2023-02-18T22:06:34;4.33;;;2.63;;
9874;SDS011;4976;46.786;7.632;2023-02-18T22:09:02;3.63;;;2.40;;
9874;SDS011;4976;46.786;7.632;2023-02-18T22:11:30;2.80;;;2.50;;
9874;SDS011;4976;46.786;7.632;2023-02-18T22:13:58;3.73;;;2.97;;
9874;SDS011;4976;46.786;7.632;2023-02-18T22:16:25;4.23;;;3.07;;
9874;SDS011;4976;46.786;7.632;2023-02-18T22:18:53;3.40;;;2.73;;
9874;SDS011;4976;46.786;7.632;2023-02-18T22:21:21;3.97;;;2.53;;
9874;SDS011;4976;46.786;7.632;2023-02-18T22:23:49;4.13;;;2.70;;
9874;SDS011;4976;46.786;7.632;2023-02-18T22:26:17;2.43;;;2.23;;
9874;SDS011;4976;46.786;7.632;2023-02-18T22:28:49;2.47;;;2.20;;
9874;SDS011;4976;46.786;7.632;2023-02-18T22:31:16;5.70;;;3.70;;
9874;SDS011;4976;46.786;7.632;2023-02-18T22:33:44;4.13;;;3.10;;
9874;SDS011;4976;46.786;7.632;2023-02-18T22:36:13;3.53;;;3.03;;
9874;SDS011;4976;46.786;7.632;2023-02-18T22:38:40;4.20;;;3.00;;
9874;SDS011;4976;46.786;7.632;2023-02-18T22:41:10;3.67;;;2.70;;
9874;SDS011;4976;46.786;7.632;2023-02-18T22:43:38;4.73;;;2.80;;
9874;SDS011;4976;46.786;7.632;2023-02-18T22:46:07;3.17;;;2.87;;
9874;SDS011;4976;46.786;7.632;2023-02-18T22:48:36;4.20;;;3.50;;
9874;SDS011;4976;46.786;7.632;2023-02-18T22:51:06;3.33;;;2.70;;
9874;SDS011;4976;46.786;7.632;2023-02-18T22:53:34;4.60;;;2.90;;
9874;SDS011;4976;46.786;7.632;2023-02-18T22:56:03;3.67;;;2.63;;
9874;SDS011;4976;46.786;7.632;2023-02-18T22:58:34;4.27;;;2.90;;
